createdAt,value
2019-02-28T00:02:07.367Z,34.90
2019-02-28T00:04:38.476Z,32.50
2019-02-28T00:07:09.710Z,38.10
2019-02-28T00:09:40.771Z,34.77
2019-02-28T00:12:13.695Z,36.50
2019-02-28T00:14:45.650Z,37.63
2019-02-28T00:17:17.116Z,29.13
2019-02-28T00:19:48.272Z,37.73
2019-02-28T00:22:19.693Z,35.13
2019-02-28T00:24:50.764Z,35.83
2019-02-28T00:27:22.208Z,37.17
2019-02-28T00:29:53.335Z,34.60
2019-02-28T00:32:24.834Z,41.57
2019-02-28T00:34:56.881Z,35.83
2019-02-28T00:37:28.702Z,31.80
2019-02-28T00:39:59.779Z,35.67
2019-02-28T00:42:30.984Z,34.30
2019-02-28T00:45:02.837Z,34.37
2019-02-28T00:47:35.025Z,36.23
2019-02-28T00:50:06.610Z,38.20
2019-02-28T00:52:38.036Z,36.13
2019-02-28T00:55:09.388Z,37.47
2019-02-28T00:57:40.721Z,37.17
2019-02-28T01:00:12.744Z,32.63
2019-02-28T01:02:44.141Z,36.70
2019-02-28T01:05:15.804Z,32.63
2019-02-28T01:07:48.294Z,34.03
2019-02-28T01:10:20.346Z,37.20
2019-02-28T01:12:54.377Z,38.60
2019-02-28T01:15:24.500Z,36.63
2019-02-28T01:17:57.148Z,29.00
2019-02-28T01:20:28.774Z,32.60
2019-02-28T01:23:00.125Z,47.27
2019-02-28T01:25:31.156Z,43.13
2019-02-28T01:28:02.669Z,46.80
2019-02-28T01:30:33.787Z,33.90
2019-02-28T01:33:04.946Z,37.33
2019-02-28T01:35:37.535Z,38.80
2019-02-28T01:38:10.134Z,44.83
2019-02-28T01:40:41.116Z,35.00
2019-02-28T01:43:12.284Z,34.53
2019-02-28T01:45:44.298Z,34.93
2019-02-28T01:48:15.684Z,34.07
2019-02-28T01:50:46.752Z,33.73
2019-02-28T01:53:19.506Z,32.20
2019-02-28T01:55:51.065Z,32.83
2019-02-28T01:58:22.537Z,37.40
2019-02-28T02:00:53.859Z,37.10
2019-02-28T02:03:26.577Z,36.20
2019-02-28T02:05:57.650Z,37.07
2019-02-28T02:08:28.991Z,38.43
2019-02-28T02:11:00.055Z,40.63
2019-02-28T02:13:31.363Z,33.37
2019-02-28T02:16:02.422Z,38.13
2019-02-28T02:18:33.746Z,34.73
2019-02-28T02:21:04.796Z,34.33
2019-02-28T02:23:36.135Z,46.47
2019-02-28T02:26:08.372Z,34.17
2019-02-28T02:28:40.180Z,39.90
2019-02-28T02:31:13.185Z,36.23
2019-02-28T02:33:51.173Z,33.07
2019-02-28T02:36:18.523Z,41.93
2019-02-28T02:38:49.777Z,33.60
2019-02-28T02:41:20.858Z,36.50
2019-02-28T02:43:54.937Z,46.70
2019-02-28T02:46:25.168Z,38.03
2019-02-28T02:48:56.595Z,39.67
2019-02-28T02:51:27.634Z,35.97
2019-02-28T02:53:58.987Z,33.33
2019-02-28T02:56:30.135Z,35.50
2019-02-28T02:59:02.362Z,34.83
2019-02-28T03:01:33.630Z,34.10
2019-02-28T03:04:05.009Z,35.60
2019-02-28T03:06:36.129Z,31.67
2019-02-28T03:09:10.008Z,36.07
2019-02-28T03:11:41.740Z,33.57
2019-02-28T03:14:16.441Z,35.47
2019-02-28T03:16:45.979Z,33.23
2019-02-28T03:19:17.293Z,34.80
2019-02-28T03:21:52.664Z,42.47
2019-02-28T03:24:21.522Z,38.67
2019-02-28T03:26:52.691Z,32.67
2019-02-28T03:29:24.024Z,42.60
2019-02-28T03:31:58.998Z,34.87
2019-02-28T03:34:28.190Z,36.33
2019-02-28T03:36:59.343Z,40.40
2019-02-28T03:39:30.754Z,33.13
2019-02-28T03:42:02.256Z,37.57
2019-02-28T03:44:45.517Z,33.20
2019-02-28T03:47:22.691Z,34.40
2019-02-28T03:49:50.260Z,31.33
2019-02-28T03:52:21.406Z,36.37
2019-02-28T03:54:52.634Z,31.50
2019-02-28T03:57:27.898Z,38.83
2019-02-28T03:59:57.059Z,34.70
2019-02-28T04:02:28.617Z,35.70
2019-02-28T04:05:11.564Z,33.60
2019-02-28T04:07:42.631Z,40.50
2019-02-28T04:10:16.665Z,37.60
2019-02-28T04:12:47.201Z,33.47
2019-02-28T04:15:18.940Z,33.13
2019-02-28T04:17:50.247Z,35.90
2019-02-28T04:20:21.640Z,36.70
2019-02-28T04:22:58.358Z,34.50
2019-02-28T04:25:25.866Z,35.90
2019-02-28T04:28:02.585Z,36.67
2019-02-28T04:30:42.544Z,35.93
2019-02-28T04:33:08.264Z,33.73
2019-02-28T04:35:39.668Z,38.13
2019-02-28T04:38:10.741Z,38.50
2019-02-28T04:40:42.162Z,33.40
2019-02-28T04:43:14.684Z,36.30
2019-02-28T04:45:46.308Z,35.10
2019-02-28T04:48:17.688Z,36.73
2019-02-28T04:50:49.090Z,38.67
2019-02-28T04:53:21.178Z,35.03
2019-02-28T04:55:52.612Z,39.83
2019-02-28T04:58:25.269Z,32.23
2019-02-28T05:00:56.890Z,39.20
2019-02-28T05:03:29.116Z,37.90
2019-02-28T05:06:00.676Z,36.90
2019-02-28T05:08:31.780Z,44.50
2019-02-28T05:11:03.173Z,38.90
2019-02-28T05:13:34.508Z,38.63
2019-02-28T05:16:05.814Z,37.50
2019-02-28T05:18:36.874Z,35.47
2019-02-28T05:21:08.295Z,35.63
2019-02-28T05:23:39.432Z,41.80
2019-02-28T05:26:11.183Z,40.47
2019-02-28T05:28:42.245Z,41.87
2019-02-28T05:31:13.775Z,41.40
2019-02-28T05:33:44.883Z,41.20
2019-02-28T05:36:16.247Z,38.43
2019-02-28T05:38:47.314Z,35.23
2019-02-28T05:41:18.498Z,36.63
2019-02-28T05:43:49.568Z,47.13
2019-02-28T05:46:23.774Z,34.57
2019-02-28T05:48:54.168Z,37.00
2019-02-28T05:51:25.820Z,37.67
2019-02-28T05:53:57.252Z,33.27
2019-02-28T05:56:32.761Z,36.17
2019-02-28T05:59:01.333Z,40.27
2019-02-28T06:01:32.818Z,37.93
2019-02-28T06:04:05.040Z,35.67
2019-02-28T06:06:36.538Z,35.80
2019-02-28T06:09:10.344Z,37.67
2019-02-28T06:11:40.774Z,38.20
2019-02-28T06:14:11.874Z,43.97
2019-02-28T06:16:46.470Z,37.00
2019-02-28T06:19:15.968Z,33.93
2019-02-28T06:21:47.331Z,36.70
2019-02-28T06:24:18.391Z,36.53
2019-02-28T06:26:49.798Z,33.77
2019-02-28T06:29:20.871Z,33.43
2019-02-28T06:31:52.183Z,37.57
2019-02-28T06:34:23.330Z,36.57
2019-02-28T06:36:54.776Z,34.50
2019-02-28T06:39:26.906Z,34.47
2019-02-28T06:41:59.118Z,32.33
2019-02-28T06:44:30.270Z,35.50
2019-02-28T06:47:02.460Z,37.90
2019-02-28T06:49:33.563Z,33.90
2019-02-28T06:52:05.038Z,39.30
2019-02-28T06:54:36.361Z,45.03
2019-02-28T06:57:07.722Z,34.13
2019-02-28T06:59:39.055Z,39.63
2019-02-28T07:02:11.358Z,39.33
2019-02-28T07:04:45.489Z,37.37
2019-02-28T07:07:15.588Z,38.73
2019-02-28T07:09:46.675Z,34.43
2019-02-28T07:12:18.289Z,37.50
2019-02-28T07:14:49.629Z,36.03
2019-02-28T07:17:21.196Z,38.13
2019-02-28T07:19:52.240Z,36.50
2019-02-28T07:22:23.699Z,32.93
2019-02-28T07:24:54.845Z,40.70
2019-02-28T07:27:26.680Z,32.63
2019-02-28T07:29:59.077Z,36.90
2019-02-28T07:32:34.007Z,33.70
2019-02-28T07:35:03.350Z,33.40
2019-02-28T07:37:35.073Z,31.77
2019-02-28T07:40:07.095Z,35.33
2019-02-28T07:42:38.664Z,35.90
2019-02-28T07:45:12.175Z,33.40
2019-02-28T07:47:44.758Z,34.90
2019-02-28T07:50:16.247Z,33.60
2019-02-28T07:52:48.534Z,36.20
2019-02-28T07:55:19.642Z,33.17
2019-02-28T07:57:53.299Z,32.73
2019-02-28T08:00:24.813Z,36.33
2019-02-28T08:02:56.342Z,35.60
2019-02-28T08:05:31.040Z,47.60
2019-02-28T08:08:01.800Z,36.00
2019-02-28T08:10:33.069Z,31.73
2019-02-28T08:13:04.717Z,34.33
2019-02-28T08:15:35.880Z,30.93
2019-02-28T08:18:07.504Z,37.83
2019-02-28T08:20:38.548Z,39.03
2019-02-28T08:23:09.896Z,37.47
2019-02-28T08:25:42.756Z,42.37
2019-02-28T08:28:13.922Z,37.20
2019-02-28T08:30:45.025Z,31.57
2019-02-28T08:33:17.126Z,37.73
2019-02-28T08:35:48.560Z,35.20
2019-02-28T08:38:19.940Z,35.53
2019-02-28T08:40:51.670Z,35.90
2019-02-28T08:43:27.096Z,46.60
2019-02-28T08:45:55.994Z,32.53
2019-02-28T08:48:31.583Z,34.63
2019-02-28T08:51:00.246Z,35.77
2019-02-28T08:53:31.621Z,43.00
2019-02-28T08:56:02.670Z,35.20
2019-02-28T08:58:34.011Z,36.17
2019-02-28T09:01:07.637Z,37.47
2019-02-28T09:03:50.788Z,34.93
2019-02-28T09:06:21.911Z,38.33
2019-02-28T09:08:53.429Z,33.57
2019-02-28T09:11:24.492Z,35.83
2019-02-28T09:13:55.834Z,37.50
2019-02-28T09:16:26.896Z,37.77
2019-02-28T09:19:00.887Z,35.93
2019-02-28T09:21:31.172Z,39.47
2019-02-28T09:24:02.564Z,39.40
2019-02-28T09:26:33.756Z,34.30
2019-02-28T09:29:05.175Z,36.90
2019-02-28T09:31:38.973Z,42.17
2019-02-28T09:34:09.398Z,35.93
2019-02-28T09:36:40.465Z,35.07
2019-02-28T09:39:12.296Z,38.03
2019-02-28T09:41:43.392Z,46.97
2019-02-28T09:44:14.680Z,37.67
2019-02-28T09:46:47.509Z,37.77
2019-02-28T09:49:19.862Z,36.30
2019-02-28T09:51:50.930Z,36.13
2019-02-28T09:54:24.411Z,42.77
2019-02-28T09:56:55.000Z,38.50
2019-02-28T09:59:26.211Z,36.60
2019-02-28T10:02:01.318Z,39.53
2019-02-28T10:04:31.265Z,36.47
2019-02-28T10:07:02.651Z,31.97
2019-02-28T10:09:34.029Z,37.90
2019-02-28T10:12:07.802Z,35.20
2019-02-28T10:14:39.796Z,39.87
2019-02-28T10:17:10.935Z,35.53
2019-02-28T10:19:45.718Z,32.20
2019-02-28T10:22:15.057Z,35.70
2019-02-28T10:24:46.328Z,30.80
2019-02-28T10:27:17.562Z,34.50
2019-02-28T10:29:48.996Z,36.00
2019-02-28T10:32:20.048Z,35.40
2019-02-28T10:34:51.518Z,45.60
2019-02-28T10:37:23.445Z,34.77
2019-02-28T10:39:55.140Z,42.63
2019-02-28T10:42:26.224Z,43.47
2019-02-28T10:45:16.678Z,34.50
2019-02-28T10:47:47.808Z,30.93
2019-02-28T10:50:21.131Z,34.87
2019-02-28T10:52:53.843Z,37.23
2019-02-28T10:55:25.247Z,39.53
2019-02-28T10:57:57.720Z,36.43
2019-02-28T11:00:32.803Z,31.63
2019-02-28T11:03:04.475Z,40.50
2019-02-28T11:05:36.581Z,32.70
2019-02-28T11:08:12.778Z,35.57
2019-02-28T11:10:44.097Z,41.20
2019-02-28T11:13:17.229Z,32.87
2019-02-28T11:15:49.418Z,36.27
2019-02-28T11:18:20.884Z,33.40
2019-02-28T11:20:52.258Z,37.13
2019-02-28T11:23:23.939Z,32.67
2019-02-28T11:25:55.774Z,35.20
2019-02-28T11:28:28.218Z,29.40
2019-02-28T11:31:00.316Z,30.63
2019-02-28T11:33:32.764Z,32.70
2019-02-28T11:36:04.753Z,43.10
2019-02-28T11:38:35.820Z,34.00
2019-02-28T11:41:07.172Z,28.27
2019-02-28T11:43:38.695Z,29.10
2019-02-28T11:46:11.280Z,30.50
2019-02-28T11:48:42.329Z,27.03
2019-02-28T11:51:14.552Z,24.40
2019-02-28T11:53:46.408Z,29.87
2019-02-28T11:56:18.834Z,25.87
2019-02-28T11:58:51.747Z,28.87
2019-02-28T12:01:23.699Z,36.37
2019-02-28T12:04:06.836Z,33.83
2019-02-28T12:06:38.154Z,26.43
2019-02-28T12:09:09.220Z,25.50
2019-02-28T12:11:40.650Z,24.40
2019-02-28T12:14:11.765Z,23.70
2019-02-28T12:16:43.348Z,28.73
2019-02-28T12:19:15.943Z,27.60
2019-02-28T12:21:47.437Z,29.53
2019-02-28T12:24:19.588Z,30.57
2019-02-28T12:26:52.611Z,24.03
2019-02-28T12:29:23.787Z,23.93
2019-02-28T12:31:56.129Z,24.00
2019-02-28T12:34:28.744Z,24.67
2019-02-28T12:37:00.289Z,23.10
2019-02-28T12:39:33.326Z,23.13
2019-02-28T12:42:04.351Z,24.87
2019-02-28T12:44:35.425Z,24.20
2019-02-28T12:47:07.390Z,24.10
2019-02-28T12:49:38.563Z,25.50
2019-02-28T12:52:11.238Z,26.33
2019-02-28T12:54:42.598Z,27.87
2019-02-28T12:57:14.161Z,27.27
2019-02-28T12:59:46.008Z,23.67
2019-02-28T13:02:18.261Z,28.60
2019-02-28T13:04:49.400Z,29.63
2019-02-28T13:07:20.672Z,26.73
2019-02-28T13:09:52.651Z,36.07
2019-02-28T13:12:23.988Z,44.17
2019-02-28T13:15:06.857Z,26.17
2019-02-28T13:17:38.161Z,28.73
2019-02-28T13:20:12.553Z,25.77
2019-02-28T13:22:44.034Z,26.80
2019-02-28T13:25:15.410Z,27.33
2019-02-28T13:27:46.744Z,33.50
2019-02-28T13:30:20.720Z,29.60
2019-02-28T13:32:52.106Z,33.00
2019-02-28T13:35:25.479Z,31.43
2019-02-28T13:37:57.753Z,28.27
2019-02-28T13:40:29.976Z,35.33
2019-02-28T13:43:01.921Z,24.90
2019-02-28T13:45:33.259Z,37.40
2019-02-28T13:48:04.812Z,39.23
2019-02-28T13:50:35.956Z,33.93
2019-02-28T13:53:17.392Z,25.53
2019-02-28T13:55:58.815Z,23.67
2019-02-28T13:58:30.062Z,26.23
2019-02-28T14:01:01.707Z,23.10
2019-02-28T14:03:33.188Z,33.20
2019-02-28T14:06:04.465Z,19.90
2019-02-28T14:08:35.812Z,27.33
2019-02-28T14:11:18.610Z,20.53
2019-02-28T14:13:50.040Z,26.00
2019-02-28T14:16:26.329Z,18.63
2019-02-28T14:18:54.792Z,25.80
2019-02-28T14:21:25.943Z,20.50
2019-02-28T14:23:59.066Z,17.40
2019-02-28T14:26:31.143Z,19.80
2019-02-28T14:29:02.754Z,25.53
2019-02-28T14:31:33.893Z,19.50
2019-02-28T14:34:05.348Z,15.30
2019-02-28T14:36:36.435Z,15.50
2019-02-28T14:39:10.941Z,14.37
2019-02-28T14:41:42.148Z,15.93
2019-02-28T14:44:13.504Z,9.70
2019-02-28T14:46:44.578Z,13.37
2019-02-28T14:49:15.941Z,11.93
2019-02-28T14:51:47.042Z,14.80
2019-02-28T14:54:18.264Z,12.77
2019-02-28T14:57:00.790Z,10.83
2019-02-28T14:59:32.153Z,15.20
2019-02-28T15:02:03.257Z,12.90
2019-02-28T15:04:34.640Z,13.20
2019-02-28T15:07:05.741Z,13.20
2019-02-28T15:09:36.896Z,13.60
2019-02-28T15:12:07.980Z,22.63
2019-02-28T15:14:40.553Z,11.73
2019-02-28T15:17:12.117Z,11.80
2019-02-28T15:19:43.377Z,12.63
2019-02-28T15:22:17.815Z,15.63
2019-02-28T15:24:47.594Z,13.10
2019-02-28T15:27:18.668Z,13.57
2019-02-28T15:29:50.089Z,23.23
2019-02-28T15:32:21.173Z,17.73
2019-02-28T15:34:52.579Z,23.23
2019-02-28T15:37:23.673Z,13.40
2019-02-28T15:39:54.969Z,11.17
2019-02-28T15:42:26.056Z,12.27
2019-02-28T15:45:00.421Z,31.60
2019-02-28T15:47:30.135Z,10.77
2019-02-28T15:50:01.348Z,15.03
2019-02-28T15:52:32.667Z,12.40
2019-02-28T15:55:04.409Z,24.40
2019-02-28T15:57:35.455Z,14.37
2019-02-28T16:00:08.615Z,20.80
2019-02-28T16:02:42.128Z,16.97
2019-02-28T16:05:13.395Z,17.50
2019-02-28T16:07:44.428Z,15.77
2019-02-28T16:10:19.263Z,17.10
2019-02-28T16:12:51.178Z,80.93
2019-02-28T16:15:22.792Z,20.33
2019-02-28T16:18:13.051Z,21.37
2019-02-28T16:20:44.429Z,28.83
2019-02-28T16:23:15.531Z,25.57
2019-02-28T16:25:47.769Z,23.90
2019-02-28T16:28:19.032Z,17.50
2019-02-28T16:30:50.541Z,23.80
2019-02-28T16:33:24.764Z,20.90
2019-02-28T16:35:55.935Z,24.07
2019-02-28T16:38:28.648Z,21.23
2019-02-28T16:41:00.806Z,21.83
2019-02-28T16:43:34.003Z,30.10
2019-02-28T16:46:05.477Z,25.07
2019-02-28T16:48:37.241Z,22.97
2019-02-28T16:51:08.716Z,21.77
2019-02-28T16:53:39.819Z,21.33
2019-02-28T16:56:11.123Z,25.00
2019-02-28T16:58:42.204Z,19.83
2019-02-28T17:01:13.500Z,22.77
2019-02-28T17:03:44.575Z,21.17
2019-02-28T17:06:15.885Z,25.87
2019-02-28T17:09:02.039Z,20.20
2019-02-28T17:11:37.301Z,37.00
2019-02-28T17:14:13.814Z,23.47
2019-02-28T17:17:04.915Z,23.47
2019-02-28T17:19:36.107Z,30.03
2019-02-28T17:22:07.398Z,20.03
2019-02-28T17:24:38.479Z,22.87
2019-02-28T17:27:27.151Z,23.57
2019-02-28T17:30:09.291Z,18.43
2019-02-28T17:32:40.663Z,20.83
2019-02-28T17:35:11.879Z,27.43
2019-02-28T17:37:43.293Z,19.47
2019-02-28T17:40:14.800Z,22.87
2019-02-28T17:42:46.404Z,24.83
2019-02-28T17:45:23.523Z,19.90
2019-02-28T17:48:48.723Z,33.70
2019-02-28T17:51:33.913Z,24.63
2019-02-28T17:54:33.253Z,18.90
2019-02-28T17:57:27.311Z,17.27
2019-02-28T18:00:38.842Z,21.57
2019-02-28T18:03:58.801Z,19.30
2019-02-28T18:06:58.306Z,16.17
2019-02-28T18:10:03.748Z,16.63
2019-02-28T18:12:47.325Z,21.37
2019-02-28T18:15:32.433Z,17.80
2019-02-28T18:18:27.677Z,19.53
2019-02-28T18:21:37.446Z,24.40
2019-02-28T18:24:24.337Z,20.57
2019-02-28T18:27:17.005Z,16.50
2019-02-28T18:30:00.115Z,19.70
2019-02-28T18:32:33.309Z,16.03
2019-02-28T18:35:04.655Z,24.43
2019-02-28T18:37:35.928Z,16.57
2019-02-28T18:40:07.218Z,15.63
2019-02-28T18:42:39.283Z,14.50
2019-02-28T18:45:10.774Z,16.80
2019-02-28T18:47:53.659Z,22.10
2019-02-28T18:50:24.982Z,18.20
2019-02-28T18:52:57.160Z,18.17
2019-02-28T18:55:34.803Z,14.47
2019-02-28T18:58:01.521Z,23.97
2019-02-28T19:00:32.920Z,23.47
2019-02-28T19:03:15.919Z,13.83
2019-02-28T19:05:47.370Z,13.97
2019-02-28T19:08:18.525Z,20.50
2019-02-28T19:10:49.962Z,17.33
2019-02-28T19:13:21.102Z,20.80
2019-02-28T19:15:52.482Z,16.37
2019-02-28T19:18:23.662Z,18.00
2019-02-28T19:20:55.765Z,20.70
2019-02-28T19:23:26.857Z,20.30
2019-02-28T19:25:58.299Z,9.83
2019-02-28T19:28:29.356Z,17.90
2019-02-28T19:31:01.603Z,14.27
2019-02-28T19:33:32.748Z,12.30
2019-02-28T19:36:04.287Z,14.53
2019-02-28T19:38:35.421Z,14.33
2019-02-28T19:41:06.776Z,16.13
2019-02-28T19:43:37.846Z,14.43
2019-02-28T19:46:09.900Z,15.53
2019-02-28T19:48:40.961Z,12.93
2019-02-28T19:51:12.279Z,10.90
2019-02-28T19:53:43.358Z,10.57
2019-02-28T19:56:15.913Z,14.60
2019-02-28T19:58:47.060Z,10.43
2019-02-28T20:01:19.300Z,15.07
2019-02-28T20:03:50.777Z,11.53
2019-02-28T20:06:21.985Z,12.10
2019-02-28T20:08:53.053Z,10.13
2019-02-28T20:11:24.524Z,12.10
2019-02-28T20:13:55.681Z,8.10
2019-02-28T20:16:27.228Z,14.27
2019-02-28T20:18:58.380Z,9.30
2019-02-28T20:21:29.737Z,10.83
2019-02-28T20:24:00.801Z,19.40
2019-02-28T20:26:33.628Z,10.10
2019-02-28T20:29:05.010Z,7.23
2019-02-28T20:31:36.330Z,12.37
2019-02-28T20:34:08.849Z,12.80
2019-02-28T20:36:40.457Z,8.83
2019-02-28T20:39:13.176Z,7.97
2019-02-28T20:41:44.780Z,17.13
2019-02-28T20:44:15.942Z,10.43
2019-02-28T20:46:47.374Z,10.27
2019-02-28T20:49:18.645Z,14.20
2019-02-28T20:51:55.129Z,10.27
2019-02-28T20:54:23.318Z,6.03
2019-02-28T20:56:54.826Z,4.20
2019-02-28T20:59:26.281Z,8.70
2019-02-28T21:01:57.644Z,5.80
2019-02-28T21:04:29.125Z,4.93
2019-02-28T21:07:00.573Z,11.67
2019-02-28T21:09:32.950Z,4.20
2019-02-28T21:12:07.825Z,4.37
2019-02-28T21:14:39.067Z,5.70
2019-02-28T21:17:10.447Z,6.03
2019-02-28T21:19:42.342Z,3.93
2019-02-28T21:22:13.600Z,2.37
2019-02-28T21:24:44.854Z,7.63
2019-02-28T21:27:19.345Z,4.83
2019-02-28T21:29:50.756Z,4.30
2019-02-28T21:32:22.224Z,4.97
2019-02-28T21:34:53.764Z,8.83
2019-02-28T21:37:25.578Z,6.33
2019-02-28T21:39:57.470Z,8.57
2019-02-28T21:42:28.862Z,7.03
2019-02-28T21:45:00.029Z,5.57
2019-02-28T21:47:31.558Z,6.83
2019-02-28T21:50:02.995Z,4.40
2019-02-28T21:52:35.589Z,3.70
2019-02-28T21:55:08.010Z,2.43
2019-02-28T21:57:39.924Z,3.13
2019-02-28T22:00:16.602Z,3.33
2019-02-28T22:02:49.079Z,4.57
2019-02-28T22:05:20.285Z,3.80
2019-02-28T22:07:51.726Z,6.07
2019-02-28T22:10:24.079Z,5.00
2019-02-28T22:12:55.802Z,4.93
2019-02-28T22:15:26.879Z,5.40
2019-02-28T22:17:58.039Z,3.10
2019-02-28T22:20:29.079Z,4.00
2019-02-28T22:23:00.384Z,4.67
2019-02-28T22:25:31.419Z,5.50
2019-02-28T22:28:02.700Z,5.20
2019-02-28T22:31:02.115Z,6.43
2019-02-28T22:33:44.596Z,4.87
2019-02-28T22:36:18.109Z,6.03
2019-02-28T22:38:49.447Z,3.60
2019-02-28T22:41:39.610Z,6.50
2019-02-28T22:44:10.774Z,4.57
2019-02-28T22:46:41.857Z,6.50
2019-02-28T22:49:13.276Z,5.73
2019-02-28T22:51:44.357Z,4.33
2019-02-28T22:54:15.493Z,4.33
2019-02-28T22:56:46.558Z,5.17
2019-02-28T22:59:17.954Z,6.33
2019-02-28T23:01:49.206Z,6.00
2019-02-28T23:04:20.553Z,8.30
2019-02-28T23:06:51.601Z,9.60
2019-02-28T23:09:22.848Z,10.77
2019-02-28T23:11:53.924Z,6.23
2019-02-28T23:14:25.253Z,12.73
2019-02-28T23:16:56.363Z,7.13
2019-02-28T23:19:27.745Z,4.97
2019-02-28T23:21:58.876Z,8.93
2019-02-28T23:24:30.233Z,4.40
2019-02-28T23:27:19.050Z,5.03
2019-02-28T23:30:24.775Z,10.63
2019-02-28T23:33:01.898Z,6.60
2019-02-28T23:35:41.259Z,5.53
2019-02-28T23:38:12.325Z,7.70
2019-02-28T23:40:43.552Z,4.70
2019-02-28T23:43:14.660Z,5.97
2019-02-28T23:45:46.042Z,3.30
2019-02-28T23:48:17.350Z,5.97
2019-02-28T23:50:48.478Z,6.60
2019-02-28T23:53:19.889Z,7.07
2019-02-28T23:55:50.953Z,6.10
2019-02-28T23:58:22.273Z,5.00
